createdAt,value
2019-03-22T00:01:06.724Z,73.71
2019-03-22T00:03:37.737Z,73.71
2019-03-22T00:06:08.951Z,73.72
2019-03-22T00:08:39.945Z,73.71
2019-03-22T00:11:11.577Z,73.71
2019-03-22T00:13:42.786Z,73.71
2019-03-22T00:16:13.685Z,73.69
2019-03-22T00:18:44.832Z,73.70
2019-03-22T00:21:18.224Z,73.67
2019-03-22T00:23:49.196Z,73.66
2019-03-22T00:26:20.376Z,73.67
2019-03-22T00:28:51.397Z,73.67
2019-03-22T00:31:42.194Z,73.67
2019-03-22T00:34:13.178Z,73.67
2019-03-22T00:36:44.597Z,73.65
2019-03-22T00:39:15.733Z,73.64
2019-03-22T00:41:46.737Z,73.63
2019-03-22T00:44:17.709Z,73.63
2019-03-22T00:46:50.400Z,73.63
2019-03-22T00:49:21.363Z,73.64
2019-03-22T00:51:52.465Z,73.62
2019-03-22T00:54:25.859Z,73.61
2019-03-22T00:56:56.818Z,73.61
2019-03-22T00:59:27.862Z,73.63
2019-03-22T01:01:58.970Z,73.63
2019-03-22T01:04:31.352Z,73.61
2019-03-22T01:07:02.462Z,73.61
2019-03-22T01:09:33.554Z,73.58
2019-03-22T01:12:06.726Z,73.61
2019-03-22T01:14:56.038Z,73.61
2019-03-22T01:17:29.188Z,73.78
2019-03-22T01:20:01.719Z,73.78
2019-03-22T01:22:32.674Z,73.88
2019-03-22T01:25:05.342Z,73.88
2019-03-22T01:27:40.863Z,73.64
2019-03-22T01:30:10.689Z,73.64
2019-03-22T01:32:41.641Z,73.64
2019-03-22T01:35:14.590Z,73.64
2019-03-22T01:37:47.874Z,73.64
2019-03-22T01:40:21.291Z,73.65
2019-03-22T01:42:54.463Z,73.62
2019-03-22T01:45:27.440Z,73.62
2019-03-22T01:48:02.421Z,73.70
2019-03-22T01:50:41.396Z,73.61
2019-03-22T01:53:12.503Z,73.59
2019-03-22T01:55:43.520Z,73.46
2019-03-22T01:58:14.920Z,73.69
2019-03-22T02:00:46.123Z,73.58
2019-03-22T02:03:19.791Z,73.58
2019-03-22T02:05:50.812Z,73.52
2019-03-22T02:08:23.448Z,73.47
2019-03-22T02:10:54.562Z,73.68
2019-03-22T02:13:25.604Z,73.68
2019-03-22T02:16:17.012Z,73.44
2019-03-22T02:18:48.153Z,73.40
2019-03-22T02:21:20.544Z,73.39
2019-03-22T02:23:52.283Z,73.37
2019-03-22T02:26:25.099Z,73.35
2019-03-22T02:28:58.264Z,73.33
2019-03-22T02:31:31.713Z,73.32
2019-03-22T02:34:04.486Z,73.29
2019-03-22T02:36:35.514Z,73.31
2019-03-22T02:39:07.660Z,73.31
2019-03-22T02:41:38.723Z,73.32
2019-03-22T02:44:11.089Z,73.30
2019-03-22T02:46:42.107Z,73.29
2019-03-22T02:49:15.505Z,73.28
2019-03-22T02:51:47.026Z,73.26
2019-03-22T02:54:18.492Z,73.23
2019-03-22T02:56:49.564Z,73.21
2019-03-22T02:59:22.664Z,73.20
2019-03-22T03:01:57.255Z,73.20
2019-03-22T03:04:28.303Z,73.16
2019-03-22T03:07:00.341Z,73.17
2019-03-22T03:09:33.772Z,73.18
2019-03-22T03:12:04.898Z,73.16
2019-03-22T03:14:39.177Z,73.16
2019-03-22T03:17:10.377Z,73.15
2019-03-22T03:19:41.548Z,73.15
2019-03-22T03:22:12.769Z,73.12
2019-03-22T03:24:47.015Z,73.12
2019-03-22T03:27:18.496Z,73.10
2019-03-22T03:29:49.460Z,73.08
2019-03-22T03:32:23.141Z,73.05
2019-03-22T03:34:55.379Z,73.02
2019-03-22T03:37:47.373Z,72.96
2019-03-22T03:40:18.943Z,72.91
2019-03-22T03:42:50.875Z,72.93
2019-03-22T03:45:36.151Z,72.91
2019-03-22T03:48:10.068Z,72.89
2019-03-22T03:50:43.358Z,72.90
2019-03-22T03:53:14.342Z,72.90
2019-03-22T03:55:45.443Z,72.90
2019-03-22T03:58:18.458Z,72.89
2019-03-22T04:00:49.479Z,72.91
2019-03-22T04:03:20.406Z,72.90
2019-03-22T04:05:51.452Z,72.89
2019-03-22T04:08:22.607Z,72.89
2019-03-22T04:10:53.602Z,72.91
2019-03-22T04:13:24.470Z,72.92
2019-03-22T04:15:55.370Z,72.94
2019-03-22T04:18:26.359Z,72.95
2019-03-22T04:20:58.952Z,72.97
2019-03-22T04:23:29.995Z,72.94
2019-03-22T04:26:00.961Z,72.95
2019-03-22T04:28:32.416Z,72.95
2019-03-22T04:31:03.302Z,72.90
2019-03-22T04:33:36.037Z,72.88
2019-03-22T04:36:06.968Z,72.85
2019-03-22T04:38:38.001Z,72.81
2019-03-22T04:41:11.047Z,72.81
2019-03-22T04:43:44.196Z,72.83
2019-03-22T04:46:16.256Z,72.81
2019-03-22T04:48:49.183Z,72.80
2019-03-22T04:51:23.135Z,72.75
2019-03-22T04:54:02.381Z,72.75
2019-03-22T04:56:35.528Z,72.75
2019-03-22T04:59:18.422Z,72.76
2019-03-22T05:01:44.746Z,72.74
2019-03-22T05:04:16.087Z,72.74
2019-03-22T05:06:48.028Z,72.75
2019-03-22T05:09:19.820Z,72.77
2019-03-22T05:11:52.096Z,72.75
2019-03-22T05:14:24.469Z,72.78
2019-03-22T05:16:57.172Z,72.80
2019-03-22T05:19:31.637Z,72.80
2019-03-22T05:22:04.914Z,72.81
2019-03-22T05:24:39.335Z,72.79
2019-03-22T05:27:11.692Z,72.77
2019-03-22T05:29:45.653Z,72.79
2019-03-22T05:32:36.838Z,72.80
2019-03-22T05:35:08.059Z,72.83
2019-03-22T05:37:45.814Z,72.85
2019-03-22T05:40:24.689Z,72.87
2019-03-22T05:42:55.744Z,72.87
2019-03-22T05:45:45.360Z,72.88
2019-03-22T05:48:16.608Z,73.13
2019-03-22T05:50:47.479Z,73.36
2019-03-22T05:53:21.010Z,73.49
2019-03-22T05:55:52.062Z,73.86
2019-03-22T05:58:26.200Z,73.86
2019-03-22T06:00:57.373Z,73.80
2019-03-22T06:03:28.666Z,74.01
2019-03-22T06:05:59.775Z,74.23
2019-03-22T06:08:34.128Z,74.48
2019-03-22T06:11:09.170Z,74.68
2019-03-22T06:13:40.400Z,74.74
2019-03-22T06:16:12.717Z,74.94
2019-03-22T06:18:50.330Z,75.10
2019-03-22T06:21:19.101Z,75.19
2019-03-22T06:23:50.283Z,75.35
2019-03-22T06:26:26.692Z,75.48
2019-03-22T06:28:59.104Z,75.43
2019-03-22T06:31:35.551Z,75.46
2019-03-22T07:00:43.368Z,75.86
2019-03-22T07:03:30.968Z,75.82
2019-03-22T07:06:52.990Z,75.81
2019-03-22T07:12:38.864Z,75.88
2019-03-22T07:15:34.838Z,75.80
2019-03-22T07:18:45.656Z,75.69
2019-03-22T07:26:46.865Z,75.71
2019-03-22T07:29:19.998Z,75.65
2019-03-22T07:31:57.850Z,75.68
2019-03-22T07:34:30.742Z,75.64
2019-03-22T07:37:01.957Z,75.71
2019-03-22T07:51:43.794Z,75.66
2019-03-22T07:54:20.161Z,75.65
2019-03-22T07:56:56.331Z,75.39
2019-03-22T07:59:35.433Z,75.34
2019-03-22T08:02:03.389Z,75.41
2019-03-22T08:04:35.184Z,75.46
2019-03-22T08:07:07.332Z,75.31
2019-03-22T08:09:43.463Z,75.34
2019-03-22T08:12:19.333Z,75.19
2019-03-22T08:14:55.403Z,75.04
2019-03-22T08:17:28.682Z,74.77
2019-03-22T08:20:02.342Z,74.56
2019-03-22T08:22:35.730Z,74.46
2019-03-22T08:25:07.007Z,74.53
2019-03-22T08:27:38.888Z,74.49
2019-03-22T08:30:14.844Z,74.47
2019-03-22T08:32:50.298Z,74.39
2019-03-22T08:35:20.616Z,74.40
2019-03-22T08:37:52.974Z,74.40
2019-03-22T08:40:27.256Z,74.25
2019-03-22T08:43:02.447Z,74.15
2019-03-22T08:45:35.852Z,74.14
2019-03-22T08:48:25.233Z,74.21
2019-03-22T08:51:04.575Z,74.19
2019-03-22T08:53:37.469Z,74.07
2019-03-22T08:56:08.684Z,73.98
2019-03-22T08:58:39.883Z,74.00
2019-03-22T09:01:10.868Z,73.86
2019-03-22T09:03:49.058Z,73.71
2019-03-22T09:11:10.374Z,73.37
2019-03-22T09:13:39.686Z,73.05
2019-03-22T09:26:51.338Z,72.34
2019-03-22T09:33:51.881Z,72.13
2019-03-22T09:36:38.534Z,71.97
2019-03-22T09:39:20.511Z,71.86
2019-03-22T09:46:49.568Z,71.62
2019-03-22T09:52:46.394Z,71.25
2019-03-22T09:55:19.086Z,71.18
2019-03-22T09:57:50.258Z,71.07
2019-03-22T10:00:30.873Z,70.96
2019-03-22T10:03:02.350Z,70.77
2019-03-22T10:05:40.929Z,70.73
2019-03-22T10:08:12.037Z,70.60
2019-03-22T10:10:43.207Z,70.38
2019-03-22T10:13:14.341Z,70.22
2019-03-22T10:15:45.673Z,70.04
2019-03-22T10:18:16.782Z,69.86
2019-03-22T10:20:49.342Z,69.92
2019-03-22T10:23:22.517Z,69.68
2019-03-22T10:26:13.913Z,69.53
2019-03-22T10:29:46.093Z,69.36
2019-03-22T10:33:00.842Z,69.22
2019-03-22T10:40:40.428Z,68.79
2019-03-22T10:47:13.124Z,68.32
2019-03-22T10:58:22.033Z,67.48
2019-03-22T11:01:04.316Z,67.18
2019-03-22T11:05:26.083Z,67.06
2019-03-22T11:07:38.984Z,66.71
2019-03-22T11:10:11.795Z,66.35
2019-03-22T11:12:48.053Z,66.18
2019-03-22T11:16:33.684Z,65.82
2019-03-22T11:18:18.739Z,65.81
2019-03-22T11:21:05.188Z,65.41
2019-03-22T11:23:40.952Z,65.10
2019-03-22T11:26:12.659Z,65.08
2019-03-22T11:29:47.590Z,64.76
2019-03-22T11:32:13.475Z,64.55
2019-03-22T11:38:06.458Z,64.21
2019-03-22T11:41:03.680Z,63.78
2019-03-22T11:44:29.959Z,63.58
2019-03-22T11:47:51.936Z,63.31
2019-03-22T11:54:27.975Z,62.62
2019-03-22T11:57:21.716Z,62.27
2019-03-22T11:59:53.395Z,62.06
2019-03-22T12:02:33.339Z,61.82
2019-03-22T12:04:59.219Z,61.83
2019-03-22T12:07:31.592Z,61.40
2019-03-22T12:10:27.424Z,61.16
2019-03-22T12:12:58.436Z,60.87
2019-03-22T12:15:29.435Z,60.67
2019-03-22T12:18:02.591Z,60.54
2019-03-22T12:20:34.415Z,60.27
2019-03-22T12:23:05.451Z,60.06
2019-03-22T12:25:36.707Z,59.88
2019-03-22T12:28:11.426Z,59.72
2019-03-22T12:30:46.919Z,59.47
2019-03-22T12:33:18.606Z,59.31
2019-03-22T12:35:49.576Z,59.08
2019-03-22T12:38:23.107Z,58.89
2019-03-22T12:40:56.166Z,58.66
2019-03-22T12:43:28.128Z,58.49
2019-03-22T12:46:00.384Z,58.32
2019-03-22T12:48:31.423Z,58.14
2019-03-22T12:51:02.459Z,57.99
2019-03-22T12:53:34.735Z,57.85
2019-03-22T12:56:05.991Z,57.72
2019-03-22T12:58:37.020Z,57.61
2019-03-22T13:01:34.376Z,57.51
2019-03-22T13:08:07.313Z,57.15
2019-03-22T13:10:47.491Z,56.86
2019-03-22T13:13:34.370Z,56.75
2019-03-22T13:16:37.116Z,56.59
2019-03-22T13:19:38.475Z,56.40
2019-03-22T13:22:19.091Z,56.29
2019-03-22T13:24:54.922Z,56.03
2019-03-22T13:27:28.043Z,55.92
2019-03-22T13:30:00.536Z,55.75
2019-03-22T13:32:31.660Z,55.54
2019-03-22T13:35:04.305Z,55.42
2019-03-22T13:37:35.343Z,55.35
2019-03-22T13:40:07.091Z,55.25
2019-03-22T13:42:38.082Z,55.07
2019-03-22T13:45:09.430Z,55.02
2019-03-22T13:47:40.386Z,54.90
2019-03-22T13:50:11.444Z,54.79
2019-03-22T13:52:43.449Z,54.67
2019-03-22T13:55:16.600Z,54.53
2019-03-22T13:57:52.761Z,54.40
2019-03-22T14:00:23.707Z,54.27
2019-03-22T14:03:02.769Z,54.15
2019-03-22T14:05:27.895Z,54.02
2019-03-22T14:07:59.190Z,53.79
2019-03-22T14:10:36.643Z,53.71
2019-03-22T14:13:27.380Z,53.67
2019-03-22T14:16:00.911Z,53.58
2019-03-22T14:18:43.531Z,53.50
2019-03-22T14:21:20.203Z,53.44
2019-03-22T14:23:53.943Z,53.34
2019-03-22T14:26:36.785Z,53.26
2019-03-22T14:29:03.888Z,53.07
2019-03-22T14:31:34.868Z,52.83
2019-03-22T14:34:05.899Z,52.65
2019-03-22T14:36:36.884Z,52.56
2019-03-22T14:39:09.212Z,52.42
2019-03-22T14:41:40.110Z,52.25
2019-03-22T14:44:11.101Z,52.10
2019-03-22T14:46:42.120Z,51.91
2019-03-22T14:49:13.219Z,51.78
2019-03-22T14:51:45.147Z,51.68
2019-03-22T14:54:16.579Z,51.64
2019-03-22T14:56:47.944Z,51.48
2019-03-22T14:59:58.623Z,51.38
2019-03-22T15:02:21.885Z,51.23
2019-03-22T15:04:54.276Z,51.07
2019-03-22T15:07:25.247Z,50.88
2019-03-22T15:09:56.107Z,50.76
2019-03-22T15:12:27.125Z,50.59
2019-03-22T15:15:23.278Z,50.42
2019-03-22T15:18:19.388Z,50.28
2019-03-22T15:21:18.448Z,50.10
2019-03-22T15:24:24.118Z,49.98
2019-03-22T15:27:12.298Z,49.84
2019-03-22T15:30:21.812Z,49.71
2019-03-22T15:33:16.982Z,49.60
2019-03-22T15:36:06.973Z,49.50
2019-03-22T15:38:56.104Z,49.41
2019-03-22T15:41:27.135Z,49.32
2019-03-22T15:44:00.582Z,49.23
2019-03-22T15:46:32.787Z,49.18
2019-03-22T15:50:00.636Z,49.11
2019-03-22T15:52:33.201Z,49.01
2019-03-22T15:55:04.930Z,48.88
2019-03-22T15:57:44.649Z,48.83
2019-03-22T16:01:11.707Z,48.73
2019-03-22T16:06:42.168Z,48.57
2019-03-22T16:09:49.801Z,48.49
2019-03-22T16:14:04.606Z,48.39
2019-03-22T16:18:50.856Z,48.26
2019-03-22T16:21:16.439Z,48.19
2019-03-22T16:23:47.301Z,48.09
2019-03-22T16:26:21.532Z,48.06
2019-03-22T16:29:20.936Z,48.01
2019-03-22T16:32:06.038Z,47.95
2019-03-22T16:34:39.790Z,47.89
2019-03-22T16:37:19.390Z,47.83
2019-03-22T16:40:23.787Z,47.80
2019-03-22T16:42:49.869Z,47.72
2019-03-22T16:45:57.524Z,47.68
2019-03-22T16:48:29.614Z,47.63
2019-03-22T16:51:04.506Z,47.57
2019-03-22T16:53:39.099Z,47.53
2019-03-22T16:56:10.055Z,47.51
2019-03-22T16:58:41.187Z,47.45
2019-03-22T17:01:14.024Z,47.43
2019-03-22T17:03:51.342Z,47.38
2019-03-22T17:06:34.807Z,47.35
2019-03-22T17:09:07.196Z,47.31
2019-03-22T17:11:38.234Z,47.27
2019-03-22T17:14:11.503Z,47.22
2019-03-22T17:16:42.369Z,47.18
2019-03-22T17:19:13.283Z,47.15
2019-03-22T17:21:46.533Z,47.12
2019-03-22T17:24:20.360Z,47.07
2019-03-22T17:26:51.199Z,47.03
2019-03-22T17:29:25.964Z,47.01
2019-03-22T17:31:58.266Z,46.97
2019-03-22T17:34:29.436Z,46.92
2019-03-22T17:37:08.718Z,46.86
2019-03-22T17:39:55.869Z,46.84
2019-03-22T17:42:25.433Z,46.78
2019-03-22T17:45:04.426Z,46.72
2019-03-22T17:47:34.744Z,46.68
2019-03-22T17:50:06.632Z,46.66
2019-03-22T17:59:46.518Z,46.54
2019-03-22T18:11:52.395Z,46.44
2019-03-22T18:12:58.522Z,46.38
2019-03-22T18:18:40.307Z,46.32
2019-03-22T18:24:41.717Z,46.25
2019-03-22T18:27:17.507Z,46.23
2019-03-22T18:29:53.110Z,46.21
2019-03-22T18:32:29.231Z,46.18
2019-03-22T18:35:14.762Z,46.15
2019-03-22T18:37:50.278Z,46.13
2019-03-22T18:40:34.325Z,46.12
2019-03-22T18:43:24.729Z,46.09
2019-03-22T18:45:58.629Z,46.06
2019-03-22T18:48:50.556Z,46.07
2019-03-22T18:51:25.968Z,46.02
2019-03-22T18:53:57.731Z,46.00
2019-03-22T18:57:17.245Z,45.97
2019-03-22T19:00:00.815Z,45.93
2019-03-22T19:03:00.745Z,45.90
2019-03-22T19:06:18.354Z,45.90
2019-03-22T19:13:50.063Z,45.85
2019-03-22T19:15:38.659Z,45.80
2019-03-22T19:31:16.558Z,45.71
2019-03-22T19:33:46.225Z,45.70
2019-03-22T19:39:34.596Z,45.68
2019-03-22T19:42:23.336Z,45.65
2019-03-22T19:45:18.395Z,45.66
2019-03-22T19:48:03.554Z,45.63
2019-03-22T19:50:33.527Z,45.62
2019-03-22T19:53:51.653Z,45.62
2019-03-22T20:35:45.397Z,45.63
2019-03-22T20:45:49.868Z,45.65
2019-03-22T20:52:36.978Z,45.67
2019-03-22T20:55:47.268Z,45.69
2019-03-22T20:58:20.634Z,45.69
2019-03-22T21:01:01.542Z,45.71
2019-03-22T21:03:36.192Z,45.72
2019-03-22T21:06:07.661Z,45.71
2019-03-22T21:08:41.072Z,45.72
2019-03-22T21:11:17.916Z,45.73
2019-03-22T21:22:41.898Z,45.73
2019-03-22T21:25:16.664Z,45.74
2019-03-22T21:27:59.857Z,45.75
2019-03-22T21:31:00.429Z,45.75
2019-03-22T21:46:03.944Z,45.77
2019-03-22T21:48:39.677Z,45.80
2019-03-22T21:51:25.634Z,45.81
2019-03-22T21:56:43.916Z,45.83
2019-03-22T21:59:29.799Z,45.84
2019-03-22T22:02:02.424Z,45.85
2019-03-22T22:04:46.464Z,45.84
2019-03-22T22:08:06.326Z,45.83
2019-03-22T22:11:01.822Z,45.86
2019-03-22T22:13:36.063Z,45.87
2019-03-22T22:16:05.358Z,45.88
2019-03-22T22:19:13.576Z,45.87
2019-03-22T22:21:45.493Z,45.87
2019-03-22T22:24:18.477Z,45.89
2019-03-22T22:26:49.767Z,45.87
2019-03-22T22:29:21.260Z,45.90
2019-03-22T22:31:54.870Z,45.90
2019-03-22T22:34:29.055Z,45.89
2019-03-22T22:37:11.809Z,45.91
2019-03-22T22:39:50.327Z,45.92
2019-03-22T22:42:27.785Z,45.93
2019-03-22T22:45:01.102Z,45.94
2019-03-22T22:47:32.626Z,45.93
2019-03-22T22:50:10.327Z,45.93
2019-03-22T22:53:05.415Z,45.95
2019-03-22T22:55:36.806Z,45.96
2019-03-22T22:58:19.156Z,45.98
2019-03-22T23:01:01.326Z,45.97
2019-03-22T23:03:37.044Z,45.99
2019-03-22T23:06:27.194Z,46.01
2019-03-22T23:09:12.191Z,46.01
2019-03-22T23:11:45.472Z,46.06
2019-03-22T23:14:19.514Z,46.06
2019-03-22T23:17:09.581Z,46.08
2019-03-22T23:20:06.162Z,46.08
2019-03-22T23:22:40.075Z,46.11
2019-03-22T23:25:11.673Z,46.14
2019-03-22T23:28:05.021Z,46.12
2019-03-22T23:30:36.493Z,46.14
2019-03-22T23:33:29.656Z,46.17
2019-03-22T23:35:59.790Z,46.20
2019-03-22T23:38:32.133Z,46.21
2019-03-22T23:41:06.490Z,46.23
2019-03-22T23:43:49.709Z,46.26
2019-03-22T23:46:29.702Z,46.28
2019-03-22T23:49:08.761Z,46.32
2019-03-22T23:59:08.159Z,46.42
